sensor_id;sensor_type;location;lat;lon;timestamp;P1;durP1;ratioP1;P2;durP2;ratioP2
83495;SDS011;73431;40.794;43.836;2023-10-19T00:00:41;8.35;;;5.05;;
83495;SDS011;73431;40.794;43.836;2023-10-19T00:03:12;8.40;;;4.95;;
83495;SDS011;73431;40.794;43.836;2023-10-19T00:05:40;7.22;;;4.97;;
83495;SDS011;73431;40.794;43.836;2023-10-19T00:08:08;8.45;;;5.50;;
83495;SDS011;73431;40.794;43.836;2023-10-19T00:10:44;8.50;;;5.55;;
83495;SDS011;73431;40.794;43.836;2023-10-19T00:13:15;10.70;;;6.07;;
83495;SDS011;73431;40.794;43.836;2023-10-19T00:15:43;9.52;;;5.45;;
83495;SDS011;73431;40.794;43.836;2023-10-19T00:18:15;8.82;;;6.10;;
83495;SDS011;73431;40.794;43.836;2023-10-19T00:20:44;9.68;;;5.57;;
83495;SDS011;73431;40.794;43.836;2023-10-19T00:23:13;7.00;;;5.82;;
83495;SDS011;73431;40.794;43.836;2023-10-19T00:25:40;10.70;;;6.00;;
83495;SDS011;73431;40.794;43.836;2023-10-19T00:28:08;8.82;;;5.47;;
83495;SDS011;73431;40.794;43.836;2023-10-19T00:30:36;9.30;;;5.97;;
83495;SDS011;73431;40.794;43.836;2023-10-19T00:33:03;7.82;;;5.07;;
83495;SDS011;73431;40.794;43.836;2023-10-19T00:35:33;8.75;;;5.57;;
83495;SDS011;73431;40.794;43.836;2023-10-19T00:38:09;7.45;;;5.28;;
83495;SDS011;73431;40.794;43.836;2023-10-19T00:40:54;9.80;;;6.07;;
83495;SDS011;73431;40.794;43.836;2023-10-19T00:43:51;7.25;;;5.07;;
83495;SDS011;73431;40.794;43.836;2023-10-19T00:46:45;8.52;;;4.85;;
83495;SDS011;73431;40.794;43.836;2023-10-19T00:49:17;7.38;;;5.28;;
83495;SDS011;73431;40.794;43.836;2023-10-19T00:51:48;8.45;;;5.70;;
83495;SDS011;73431;40.794;43.836;2023-10-19T00:54:21;7.25;;;5.10;;
83495;SDS011;73431;40.794;43.836;2023-10-19T00:57:07;8.82;;;4.80;;
83495;SDS011;73431;40.794;43.836;2023-10-19T00:59:39;8.80;;;5.28;;
83495;SDS011;73431;40.794;43.836;2023-10-19T01:02:20;12.60;;;5.78;;
83495;SDS011;73431;40.794;43.836;2023-10-19T01:04:52;11.40;;;6.28;;
83495;SDS011;73431;40.794;43.836;2023-10-19T01:07:29;6.85;;;5.20;;
83495;SDS011;73431;40.794;43.836;2023-10-19T01:10:01;7.60;;;5.28;;
83495;SDS011;73431;40.794;43.836;2023-10-19T01:12:32;7.85;;;5.18;;
83495;SDS011;73431;40.794;43.836;2023-10-19T01:15:07;9.73;;;5.22;;
83495;SDS011;73431;40.794;43.836;2023-10-19T01:17:51;7.70;;;4.85;;
83495;SDS011;73431;40.794;43.836;2023-10-19T01:20:26;7.78;;;5.43;;
83495;SDS011;73431;40.794;43.836;2023-10-19T01:28:17;7.20;;;4.88;;
83495;SDS011;73431;40.794;43.836;2023-10-19T01:30:45;8.13;;;5.63;;
83495;SDS011;73431;40.794;43.836;2023-10-19T01:33:14;6.90;;;4.68;;
83495;SDS011;73431;40.794;43.836;2023-10-19T01:35:45;7.25;;;5.30;;
83495;SDS011;73431;40.794;43.836;2023-10-19T01:38:32;7.10;;;4.82;;
83495;SDS011;73431;40.794;43.836;2023-10-19T01:41:00;5.90;;;4.43;;
83495;SDS011;73431;40.794;43.836;2023-10-19T01:43:33;6.85;;;5.13;;
83495;SDS011;73431;40.794;43.836;2023-10-19T01:46:01;6.20;;;5.05;;
83495;SDS011;73431;40.794;43.836;2023-10-19T01:48:33;6.40;;;4.95;;
83495;SDS011;73431;40.794;43.836;2023-10-19T01:51:02;8.30;;;4.65;;
83495;SDS011;73431;40.794;43.836;2023-10-19T01:53:32;8.23;;;4.88;;
83495;SDS011;73431;40.794;43.836;2023-10-19T01:56:01;6.78;;;4.93;;
83495;SDS011;73431;40.794;43.836;2023-10-19T01:58:32;9.55;;;4.82;;
83495;SDS011;73431;40.794;43.836;2023-10-19T02:01:03;5.70;;;4.65;;
83495;SDS011;73431;40.794;43.836;2023-10-19T02:03:58;6.30;;;4.75;;
83495;SDS011;73431;40.794;43.836;2023-10-19T02:06:28;8.27;;;5.10;;
83495;SDS011;73431;40.794;43.836;2023-10-19T02:09:07;6.45;;;4.72;;
83495;SDS011;73431;40.794;43.836;2023-10-19T02:11:44;6.20;;;4.97;;
83495;SDS011;73431;40.794;43.836;2023-10-19T02:14:16;5.03;;;4.18;;
83495;SDS011;73431;40.794;43.836;2023-10-19T02:16:47;9.40;;;4.57;;
83495;SDS011;73431;40.794;43.836;2023-10-19T02:19:20;6.13;;;4.43;;
83495;SDS011;73431;40.794;43.836;2023-10-19T02:21:51;6.03;;;4.13;;
83495;SDS011;73431;40.794;43.836;2023-10-19T02:24:20;6.20;;;4.03;;
83495;SDS011;73431;40.794;43.836;2023-10-19T02:26:51;5.85;;;4.97;;
83495;SDS011;73431;40.794;43.836;2023-10-19T02:29:20;5.32;;;4.35;;
83495;SDS011;73431;40.794;43.836;2023-10-19T02:31:54;5.80;;;4.50;;
83495;SDS011;73431;40.794;43.836;2023-10-19T02:34:23;6.88;;;5.00;;
83495;SDS011;73431;40.794;43.836;2023-10-19T02:36:51;7.00;;;4.07;;
83495;SDS011;73431;40.794;43.836;2023-10-19T02:39:20;5.40;;;3.83;;
83495;SDS011;73431;40.794;43.836;2023-10-19T02:41:48;6.28;;;4.13;;
83495;SDS011;73431;40.794;43.836;2023-10-19T02:44:16;5.53;;;4.47;;
83495;SDS011;73431;40.794;43.836;2023-10-19T02:46:54;4.95;;;4.38;;
83495;SDS011;73431;40.794;43.836;2023-10-19T02:49:29;4.85;;;3.83;;
83495;SDS011;73431;40.794;43.836;2023-10-19T02:51:57;5.15;;;3.78;;
83495;SDS011;73431;40.794;43.836;2023-10-19T02:54:31;8.00;;;4.55;;
83495;SDS011;73431;40.794;43.836;2023-10-19T02:57:02;12.07;;;4.78;;
83495;SDS011;73431;40.794;43.836;2023-10-19T02:59:35;5.13;;;3.83;;
83495;SDS011;73431;40.794;43.836;2023-10-19T03:02:03;7.32;;;3.70;;
83495;SDS011;73431;40.794;43.836;2023-10-19T03:07:12;3.92;;;3.22;;
83495;SDS011;73431;40.794;43.836;2023-10-19T03:09:40;5.57;;;3.45;;
83495;SDS011;73431;40.794;43.836;2023-10-19T03:12:16;5.40;;;3.65;;
83495;SDS011;73431;40.794;43.836;2023-10-19T03:14:45;4.97;;;3.78;;
83495;SDS011;73431;40.794;43.836;2023-10-19T03:17:16;4.28;;;3.05;;
83495;SDS011;73431;40.794;43.836;2023-10-19T03:19:44;3.38;;;2.88;;
83495;SDS011;73431;40.794;43.836;2023-10-19T03:22:11;5.68;;;3.22;;
83495;SDS011;73431;40.794;43.836;2023-10-19T03:24:39;4.40;;;3.15;;
83495;SDS011;73431;40.794;43.836;2023-10-19T03:27:11;7.95;;;3.88;;
83495;SDS011;73431;40.794;43.836;2023-10-19T03:29:45;6.93;;;4.53;;
83495;SDS011;73431;40.794;43.836;2023-10-19T03:32:15;5.50;;;3.90;;
83495;SDS011;73431;40.794;43.836;2023-10-19T03:34:44;5.63;;;4.07;;
83495;SDS011;73431;40.794;43.836;2023-10-19T03:37:15;6.22;;;3.85;;
83495;SDS011;73431;40.794;43.836;2023-10-19T03:39:44;7.18;;;4.28;;
83495;SDS011;73431;40.794;43.836;2023-10-19T03:42:13;5.45;;;3.70;;
83495;SDS011;73431;40.794;43.836;2023-10-19T03:44:41;5.32;;;3.67;;
83495;SDS011;73431;40.794;43.836;2023-10-19T03:47:14;5.82;;;3.50;;
83495;SDS011;73431;40.794;43.836;2023-10-19T03:50:03;4.75;;;2.97;;
83495;SDS011;73431;40.794;43.836;2023-10-19T03:52:35;6.55;;;3.60;;
83495;SDS011;73431;40.794;43.836;2023-10-19T03:55:06;5.90;;;3.92;;
83495;SDS011;73431;40.794;43.836;2023-10-19T03:57:38;8.82;;;3.70;;
83495;SDS011;73431;40.794;43.836;2023-10-19T04:00:14;6.85;;;3.17;;
83495;SDS011;73431;40.794;43.836;2023-10-19T04:02:45;7.25;;;3.05;;
83495;SDS011;73431;40.794;43.836;2023-10-19T04:05:14;8.25;;;3.65;;
83495;SDS011;73431;40.794;43.836;2023-10-19T04:07:47;9.02;;;3.30;;
83495;SDS011;73431;40.794;43.836;2023-10-19T04:10:22;11.65;;;3.22;;
83495;SDS011;73431;40.794;43.836;2023-10-19T04:13:02;6.72;;;3.95;;
83495;SDS011;73431;40.794;43.836;2023-10-19T04:15:30;6.50;;;2.63;;
83495;SDS011;73431;40.794;43.836;2023-10-19T04:18:01;7.03;;;3.45;;
83495;SDS011;73431;40.794;43.836;2023-10-19T04:20:37;9.20;;;3.38;;
83495;SDS011;73431;40.794;43.836;2023-10-19T04:23:17;5.97;;;3.28;;
83495;SDS011;73431;40.794;43.836;2023-10-19T04:25:45;9.35;;;3.50;;
83495;SDS011;73431;40.794;43.836;2023-10-19T04:28:13;7.35;;;2.85;;
83495;SDS011;73431;40.794;43.836;2023-10-19T04:33:09;7.45;;;3.20;;
83495;SDS011;73431;40.794;43.836;2023-10-19T04:35:37;5.50;;;3.20;;
83495;SDS011;73431;40.794;43.836;2023-10-19T04:38:08;5.30;;;2.70;;
83495;SDS011;73431;40.794;43.836;2023-10-19T04:40:36;5.90;;;3.50;;
83495;SDS011;73431;40.794;43.836;2023-10-19T04:43:04;8.10;;;2.90;;
83495;SDS011;73431;40.794;43.836;2023-10-19T04:45:32;5.45;;;2.85;;
83495;SDS011;73431;40.794;43.836;2023-10-19T04:48:00;5.85;;;3.03;;
83495;SDS011;73431;40.794;43.836;2023-10-19T04:50:30;8.60;;;3.72;;
83495;SDS011;73431;40.794;43.836;2023-10-19T04:52:57;7.07;;;3.10;;
83495;SDS011;73431;40.794;43.836;2023-10-19T04:55:25;6.57;;;3.42;;
83495;SDS011;73431;40.794;43.836;2023-10-19T04:57:53;5.57;;;2.97;;
83495;SDS011;73431;40.794;43.836;2023-10-19T05:02:51;12.88;;;3.30;;
83495;SDS011;73431;40.794;43.836;2023-10-19T05:07:46;4.07;;;2.72;;
83495;SDS011;73431;40.794;43.836;2023-10-19T05:10:14;4.80;;;3.22;;
83495;SDS011;73431;40.794;43.836;2023-10-19T05:12:41;7.22;;;3.67;;
83495;SDS011;73431;40.794;43.836;2023-10-19T05:15:09;6.78;;;2.78;;
83495;SDS011;73431;40.794;43.836;2023-10-19T05:17:36;7.30;;;3.45;;
83495;SDS011;73431;40.794;43.836;2023-10-19T05:20:06;4.53;;;2.53;;
83495;SDS011;73431;40.794;43.836;2023-10-19T05:22:34;6.93;;;3.05;;
83495;SDS011;73431;40.794;43.836;2023-10-19T05:25:02;7.28;;;3.65;;
83495;SDS011;73431;40.794;43.836;2023-10-19T05:27:30;5.80;;;2.47;;
83495;SDS011;73431;40.794;43.836;2023-10-19T05:32:29;6.47;;;3.03;;
83495;SDS011;73431;40.794;43.836;2023-10-19T05:37:26;3.22;;;2.47;;
83495;SDS011;73431;40.794;43.836;2023-10-19T05:39:56;5.63;;;3.03;;
83495;SDS011;73431;40.794;43.836;2023-10-19T05:42:24;5.72;;;2.78;;
83495;SDS011;73431;40.794;43.836;2023-10-19T05:44:52;6.00;;;2.55;;
83495;SDS011;73431;40.794;43.836;2023-10-19T05:47:20;13.20;;;3.40;;
83495;SDS011;73431;40.794;43.836;2023-10-19T05:49:47;16.38;;;3.15;;
83495;SDS011;73431;40.794;43.836;2023-10-19T05:52:15;11.25;;;2.88;;
83495;SDS011;73431;40.794;43.836;2023-10-19T05:54:43;12.65;;;2.88;;
83495;SDS011;73431;40.794;43.836;2023-10-19T05:57:10;16.48;;;3.05;;
83495;SDS011;73431;40.794;43.836;2023-10-19T05:59:39;8.07;;;2.70;;
83495;SDS011;73431;40.794;43.836;2023-10-19T06:02:07;10.80;;;3.88;;
83495;SDS011;73431;40.794;43.836;2023-10-19T06:04:35;8.00;;;2.97;;
83495;SDS011;73431;40.794;43.836;2023-10-19T06:07:03;7.85;;;2.78;;
83495;SDS011;73431;40.794;43.836;2023-10-19T06:09:30;6.13;;;2.42;;
83495;SDS011;73431;40.794;43.836;2023-10-19T06:12:01;9.45;;;2.70;;
83495;SDS011;73431;40.794;43.836;2023-10-19T06:14:29;10.48;;;2.92;;
83495;SDS011;73431;40.794;43.836;2023-10-19T06:16:57;7.40;;;2.78;;
83495;SDS011;73431;40.794;43.836;2023-10-19T06:19:25;5.90;;;3.08;;
83495;SDS011;73431;40.794;43.836;2023-10-19T06:21:52;8.07;;;2.60;;
83495;SDS011;73431;40.794;43.836;2023-10-19T06:24:20;4.20;;;2.55;;
83495;SDS011;73431;40.794;43.836;2023-10-19T06:26:47;6.35;;;3.22;;
83495;SDS011;73431;40.794;43.836;2023-10-19T06:29:15;6.85;;;2.88;;
83495;SDS011;73431;40.794;43.836;2023-10-19T06:31:42;4.88;;;2.05;;
83495;SDS011;73431;40.794;43.836;2023-10-19T06:34:10;6.18;;;2.72;;
83495;SDS011;73431;40.794;43.836;2023-10-19T06:36:38;7.72;;;2.55;;
83495;SDS011;73431;40.794;43.836;2023-10-19T06:39:05;4.57;;;2.17;;
83495;SDS011;73431;40.794;43.836;2023-10-19T06:41:33;5.38;;;3.03;;
83495;SDS011;73431;40.794;43.836;2023-10-19T06:44:01;7.82;;;2.50;;
83495;SDS011;73431;40.794;43.836;2023-10-19T06:46:29;4.22;;;2.60;;
83495;SDS011;73431;40.794;43.836;2023-10-19T06:48:58;4.07;;;2.90;;
83495;SDS011;73431;40.794;43.836;2023-10-19T06:51:27;6.85;;;3.22;;
83495;SDS011;73431;40.794;43.836;2023-10-19T06:53:56;6.00;;;2.42;;
83495;SDS011;73431;40.794;43.836;2023-10-19T06:56:24;5.90;;;2.70;;
83495;SDS011;73431;40.794;43.836;2023-10-19T06:58:53;3.67;;;2.10;;
83495;SDS011;73431;40.794;43.836;2023-10-19T07:01:20;9.10;;;2.75;;
83495;SDS011;73431;40.794;43.836;2023-10-19T07:03:53;4.00;;;2.40;;
83495;SDS011;73431;40.794;43.836;2023-10-19T07:06:21;4.78;;;2.95;;
83495;SDS011;73431;40.794;43.836;2023-10-19T07:08:48;8.65;;;3.47;;
83495;SDS011;73431;40.794;43.836;2023-10-19T07:11:16;7.30;;;2.70;;
83495;SDS011;73431;40.794;43.836;2023-10-19T07:13:43;6.20;;;3.35;;
83495;SDS011;73431;40.794;43.836;2023-10-19T07:16:11;4.95;;;2.65;;
83495;SDS011;73431;40.794;43.836;2023-10-19T07:18:39;5.43;;;3.05;;
83495;SDS011;73431;40.794;43.836;2023-10-19T07:21:06;6.25;;;3.03;;
83495;SDS011;73431;40.794;43.836;2023-10-19T07:23:36;4.88;;;3.28;;
83495;SDS011;73431;40.794;43.836;2023-10-19T07:26:07;5.07;;;3.45;;
83495;SDS011;73431;40.794;43.836;2023-10-19T07:28:35;5.90;;;3.10;;
83495;SDS011;73431;40.794;43.836;2023-10-19T07:31:05;6.72;;;2.70;;
83495;SDS011;73431;40.794;43.836;2023-10-19T07:33:42;4.15;;;2.90;;
83495;SDS011;73431;40.794;43.836;2023-10-19T07:36:13;4.82;;;3.10;;
83495;SDS011;73431;40.794;43.836;2023-10-19T07:38:45;6.80;;;2.88;;
83495;SDS011;73431;40.794;43.836;2023-10-19T07:41:14;5.38;;;2.70;;
83495;SDS011;73431;40.794;43.836;2023-10-19T07:43:42;3.83;;;2.40;;
83495;SDS011;73431;40.794;43.836;2023-10-19T07:46:11;6.75;;;3.22;;
83495;SDS011;73431;40.794;43.836;2023-10-19T07:48:39;4.95;;;3.45;;
83495;SDS011;73431;40.794;43.836;2023-10-19T07:51:07;3.35;;;2.58;;
83495;SDS011;73431;40.794;43.836;2023-10-19T07:53:38;4.85;;;3.10;;
83495;SDS011;73431;40.794;43.836;2023-10-19T07:56:05;4.07;;;2.88;;
83495;SDS011;73431;40.794;43.836;2023-10-19T07:58:33;4.97;;;2.58;;
83495;SDS011;73431;40.794;43.836;2023-10-19T08:01:01;6.22;;;3.00;;
83495;SDS011;73431;40.794;43.836;2023-10-19T08:03:29;2.92;;;2.33;;
83495;SDS011;73431;40.794;43.836;2023-10-19T08:08:24;8.35;;;3.10;;
83495;SDS011;73431;40.794;43.836;2023-10-19T08:10:52;4.38;;;2.90;;
83495;SDS011;73431;40.794;43.836;2023-10-19T08:13:20;4.13;;;2.33;;
83495;SDS011;73431;40.794;43.836;2023-10-19T08:15:47;6.95;;;2.42;;
83495;SDS011;73431;40.794;43.836;2023-10-19T08:18:15;6.10;;;2.55;;
83495;SDS011;73431;40.794;43.836;2023-10-19T08:20:42;7.20;;;3.58;;
83495;SDS011;73431;40.794;43.836;2023-10-19T08:23:12;6.97;;;2.60;;
83495;SDS011;73431;40.794;43.836;2023-10-19T08:25:44;9.00;;;2.92;;
83495;SDS011;73431;40.794;43.836;2023-10-19T08:28:23;6.05;;;2.50;;
83495;SDS011;73431;40.794;43.836;2023-10-19T08:30:51;6.82;;;2.92;;
83495;SDS011;73431;40.794;43.836;2023-10-19T08:33:27;6.10;;;2.92;;
83495;SDS011;73431;40.794;43.836;2023-10-19T08:35:57;4.45;;;3.00;;
83495;SDS011;73431;40.794;43.836;2023-10-19T08:38:24;8.05;;;3.15;;
83495;SDS011;73431;40.794;43.836;2023-10-19T08:40:53;6.00;;;3.10;;
83495;SDS011;73431;40.794;43.836;2023-10-19T08:43:21;5.32;;;2.90;;
83495;SDS011;73431;40.794;43.836;2023-10-19T08:45:51;4.82;;;2.25;;
83495;SDS011;73431;40.794;43.836;2023-10-19T08:48:20;4.50;;;2.63;;
83495;SDS011;73431;40.794;43.836;2023-10-19T08:50:49;3.65;;;2.45;;
83495;SDS011;73431;40.794;43.836;2023-10-19T08:53:18;5.80;;;3.33;;
83495;SDS011;73431;40.794;43.836;2023-10-19T08:55:48;5.80;;;3.35;;
83495;SDS011;73431;40.794;43.836;2023-10-19T08:58:17;5.00;;;3.00;;
83495;SDS011;73431;40.794;43.836;2023-10-19T09:00:47;3.42;;;2.58;;
83495;SDS011;73431;40.794;43.836;2023-10-19T09:03:18;4.85;;;2.75;;
83495;SDS011;73431;40.794;43.836;2023-10-19T09:05:47;4.35;;;2.25;;
83495;SDS011;73431;40.794;43.836;2023-10-19T09:08:15;3.83;;;2.75;;
83495;SDS011;73431;40.794;43.836;2023-10-19T09:10:45;4.50;;;2.78;;
83495;SDS011;73431;40.794;43.836;2023-10-19T09:13:16;3.97;;;2.90;;
83495;SDS011;73431;40.794;43.836;2023-10-19T09:15:47;4.95;;;2.85;;
83495;SDS011;73431;40.794;43.836;2023-10-19T09:18:24;6.10;;;3.10;;
83495;SDS011;73431;40.794;43.836;2023-10-19T09:20:58;3.60;;;2.67;;
83495;SDS011;73431;40.794;43.836;2023-10-19T09:23:35;5.63;;;3.00;;
83495;SDS011;73431;40.794;43.836;2023-10-19T09:26:04;6.30;;;2.55;;
83495;SDS011;73431;40.794;43.836;2023-10-19T09:28:34;3.35;;;2.78;;
83495;SDS011;73431;40.794;43.836;2023-10-19T09:31:03;4.10;;;2.40;;
83495;SDS011;73431;40.794;43.836;2023-10-19T09:33:32;3.88;;;2.78;;
83495;SDS011;73431;40.794;43.836;2023-10-19T09:36:02;4.07;;;2.60;;
83495;SDS011;73431;40.794;43.836;2023-10-19T09:41:21;3.53;;;2.10;;
83495;SDS011;73431;40.794;43.836;2023-10-19T09:43:49;3.80;;;2.78;;
83495;SDS011;73431;40.794;43.836;2023-10-19T09:46:21;4.20;;;2.15;;
83495;SDS011;73431;40.794;43.836;2023-10-19T09:48:51;4.30;;;2.95;;
83495;SDS011;73431;40.794;43.836;2023-10-19T09:51:19;4.03;;;2.63;;
83495;SDS011;73431;40.794;43.836;2023-10-19T09:53:57;3.88;;;2.75;;
83495;SDS011;73431;40.794;43.836;2023-10-19T09:59:05;7.38;;;3.10;;
83495;SDS011;73431;40.794;43.836;2023-10-19T10:04:42;3.28;;;2.08;;
83495;SDS011;73431;40.794;43.836;2023-10-19T10:07:14;4.22;;;2.58;;
83495;SDS011;73431;40.794;43.836;2023-10-19T10:10:02;3.50;;;2.65;;
83495;SDS011;73431;40.794;43.836;2023-10-19T10:12:31;3.97;;;3.00;;
83495;SDS011;73431;40.794;43.836;2023-10-19T10:15:05;5.47;;;2.75;;
83495;SDS011;73431;40.794;43.836;2023-10-19T10:17:37;8.45;;;2.92;;
83495;SDS011;73431;40.794;43.836;2023-10-19T10:22:42;6.88;;;2.60;;
83495;SDS011;73431;40.794;43.836;2023-10-19T10:25:27;8.48;;;2.90;;
83495;SDS011;73431;40.794;43.836;2023-10-19T10:27:56;4.50;;;2.90;;
83495;SDS011;73431;40.794;43.836;2023-10-19T10:32:52;12.07;;;2.63;;
83495;SDS011;73431;40.794;43.836;2023-10-19T10:38:06;3.45;;;2.47;;
83495;SDS011;73431;40.794;43.836;2023-10-19T10:40:42;5.13;;;2.47;;
83495;SDS011;73431;40.794;43.836;2023-10-19T10:43:11;3.70;;;2.95;;
83495;SDS011;73431;40.794;43.836;2023-10-19T10:45:39;5.75;;;2.80;;
83495;SDS011;73431;40.794;43.836;2023-10-19T10:48:11;4.53;;;3.28;;
83495;SDS011;73431;40.794;43.836;2023-10-19T10:50:40;4.35;;;3.20;;
83495;SDS011;73431;40.794;43.836;2023-10-19T10:53:08;6.28;;;3.20;;
83495;SDS011;73431;40.794;43.836;2023-10-19T10:55:42;3.60;;;2.47;;
83495;SDS011;73431;40.794;43.836;2023-10-19T10:58:16;3.33;;;3.03;;
83495;SDS011;73431;40.794;43.836;2023-10-19T11:00:45;3.40;;;2.40;;
83495;SDS011;73431;40.794;43.836;2023-10-19T11:03:19;4.38;;;2.78;;
83495;SDS011;73431;40.794;43.836;2023-10-19T11:05:46;8.48;;;2.53;;
83495;SDS011;73431;40.794;43.836;2023-10-19T11:08:14;8.13;;;3.00;;
83495;SDS011;73431;40.794;43.836;2023-10-19T11:10:48;9.50;;;2.58;;
83495;SDS011;73431;40.794;43.836;2023-10-19T11:13:16;5.95;;;2.95;;
83495;SDS011;73431;40.794;43.836;2023-10-19T11:15:53;6.70;;;2.80;;
83495;SDS011;73431;40.794;43.836;2023-10-19T11:21:07;5.57;;;2.40;;
83495;SDS011;73431;40.794;43.836;2023-10-19T11:26:19;5.05;;;2.38;;
83495;SDS011;73431;40.794;43.836;2023-10-19T11:28:56;5.13;;;2.50;;
83495;SDS011;73431;40.794;43.836;2023-10-19T11:31:28;5.10;;;2.10;;
83495;SDS011;73431;40.794;43.836;2023-10-19T11:34:04;11.52;;;2.50;;
83495;SDS011;73431;40.794;43.836;2023-10-19T11:36:33;4.40;;;2.58;;
83495;SDS011;73431;40.794;43.836;2023-10-19T11:39:01;4.50;;;2.30;;
83495;SDS011;73431;40.794;43.836;2023-10-19T11:41:31;8.35;;;2.22;;
83495;SDS011;73431;40.794;43.836;2023-10-19T11:44:00;6.93;;;2.22;;
83495;SDS011;73431;40.794;43.836;2023-10-19T11:46:27;6.28;;;1.98;;
83495;SDS011;73431;40.794;43.836;2023-10-19T11:48:56;3.75;;;2.58;;
83495;SDS011;73431;40.794;43.836;2023-10-19T11:51:26;5.28;;;1.85;;
83495;SDS011;73431;40.794;43.836;2023-10-19T11:53:54;4.25;;;2.28;;
83495;SDS011;73431;40.794;43.836;2023-10-19T11:56:22;3.38;;;2.20;;
83495;SDS011;73431;40.794;43.836;2023-10-19T11:58:52;4.35;;;1.70;;
83495;SDS011;73431;40.794;43.836;2023-10-19T12:01:20;3.08;;;1.67;;
83495;SDS011;73431;40.794;43.836;2023-10-19T12:03:47;5.43;;;2.38;;
83495;SDS011;73431;40.794;43.836;2023-10-19T12:06:15;3.67;;;1.65;;
83495;SDS011;73431;40.794;43.836;2023-10-19T12:08:47;4.70;;;2.38;;
83495;SDS011;73431;40.794;43.836;2023-10-19T12:11:14;6.72;;;2.00;;
83495;SDS011;73431;40.794;43.836;2023-10-19T12:13:43;5.32;;;1.92;;
83495;SDS011;73431;40.794;43.836;2023-10-19T12:16:12;5.43;;;1.95;;
83495;SDS011;73431;40.794;43.836;2023-10-19T12:18:39;5.65;;;2.33;;
83495;SDS011;73431;40.794;43.836;2023-10-19T12:21:09;5.22;;;2.22;;
83495;SDS011;73431;40.794;43.836;2023-10-19T12:23:45;5.78;;;2.13;;
83495;SDS011;73431;40.794;43.836;2023-10-19T12:26:21;3.17;;;1.83;;
83495;SDS011;73431;40.794;43.836;2023-10-19T12:28:49;5.22;;;2.13;;
83495;SDS011;73431;40.794;43.836;2023-10-19T12:31:17;2.78;;;1.70;;
83495;SDS011;73431;40.794;43.836;2023-10-19T12:33:49;6.50;;;2.10;;
83495;SDS011;73431;40.794;43.836;2023-10-19T12:36:16;3.70;;;1.92;;
83495;SDS011;73431;40.794;43.836;2023-10-19T12:38:59;4.18;;;2.08;;
83495;SDS011;73431;40.794;43.836;2023-10-19T12:41:28;4.05;;;1.92;;
83495;SDS011;73431;40.794;43.836;2023-10-19T12:43:56;2.53;;;1.65;;
83495;SDS011;73431;40.794;43.836;2023-10-19T12:46:29;4.40;;;2.55;;
83495;SDS011;73431;40.794;43.836;2023-10-19T12:48:57;3.33;;;2.30;;
83495;SDS011;73431;40.794;43.836;2023-10-19T12:53:53;6.85;;;2.42;;
83495;SDS011;73431;40.794;43.836;2023-10-19T12:56:22;3.42;;;2.10;;
83495;SDS011;73431;40.794;43.836;2023-10-19T12:58:56;9.20;;;1.90;;
83495;SDS011;73431;40.794;43.836;2023-10-19T13:01:24;3.17;;;2.17;;
83495;SDS011;73431;40.794;43.836;2023-10-19T13:03:51;4.40;;;2.50;;
83495;SDS011;73431;40.794;43.836;2023-10-19T13:06:19;4.88;;;2.00;;
83495;SDS011;73431;40.794;43.836;2023-10-19T13:08:46;7.13;;;2.42;;
83495;SDS011;73431;40.794;43.836;2023-10-19T13:11:14;5.05;;;2.17;;
83495;SDS011;73431;40.794;43.836;2023-10-19T13:13:45;3.38;;;2.08;;
83495;SDS011;73431;40.794;43.836;2023-10-19T13:16:15;6.28;;;1.90;;
83495;SDS011;73431;40.794;43.836;2023-10-19T13:21:11;3.75;;;1.88;;
83495;SDS011;73431;40.794;43.836;2023-10-19T13:23:45;5.68;;;1.70;;
83495;SDS011;73431;40.794;43.836;2023-10-19T13:26:12;3.38;;;2.28;;
83495;SDS011;73431;40.794;43.836;2023-10-19T13:28:43;4.80;;;1.98;;
83495;SDS011;73431;40.794;43.836;2023-10-19T13:31:12;3.97;;;1.67;;
83495;SDS011;73431;40.794;43.836;2023-10-19T13:33:42;4.05;;;1.83;;
83495;SDS011;73431;40.794;43.836;2023-10-19T13:36:11;5.55;;;2.03;;
83495;SDS011;73431;40.794;43.836;2023-10-19T13:38:43;3.17;;;2.05;;
83495;SDS011;73431;40.794;43.836;2023-10-19T13:41:11;2.97;;;1.50;;
83495;SDS011;73431;40.794;43.836;2023-10-19T13:43:59;2.92;;;1.50;;
83495;SDS011;73431;40.794;43.836;2023-10-19T13:46:42;3.55;;;1.75;;
83495;SDS011;73431;40.794;43.836;2023-10-19T13:49:09;4.05;;;1.90;;
83495;SDS011;73431;40.794;43.836;2023-10-19T13:51:37;2.88;;;1.50;;
83495;SDS011;73431;40.794;43.836;2023-10-19T13:54:06;3.85;;;1.50;;
83495;SDS011;73431;40.794;43.836;2023-10-19T13:56:34;5.90;;;1.70;;
83495;SDS011;73431;40.794;43.836;2023-10-19T13:59:02;2.72;;;1.40;;
83495;SDS011;73431;40.794;43.836;2023-10-19T14:01:32;3.13;;;2.15;;
83495;SDS011;73431;40.794;43.836;2023-10-19T14:04:00;2.90;;;1.73;;
83495;SDS011;73431;40.794;43.836;2023-10-19T14:06:28;2.47;;;1.58;;
83495;SDS011;73431;40.794;43.836;2023-10-19T14:08:56;2.47;;;1.40;;
83495;SDS011;73431;40.794;43.836;2023-10-19T14:11:24;2.42;;;1.10;;
83495;SDS011;73431;40.794;43.836;2023-10-19T14:13:51;3.42;;;1.77;;
83495;SDS011;73431;40.794;43.836;2023-10-19T14:18:46;5.13;;;1.63;;
83495;SDS011;73431;40.794;43.836;2023-10-19T14:21:14;4.57;;;1.77;;
83495;SDS011;73431;40.794;43.836;2023-10-19T14:23:44;4.35;;;1.40;;
83495;SDS011;73431;40.794;43.836;2023-10-19T14:26:13;4.70;;;1.60;;
83495;SDS011;73431;40.794;43.836;2023-10-19T14:28:41;4.75;;;1.88;;
83495;SDS011;73431;40.794;43.836;2023-10-19T14:31:09;3.60;;;1.58;;
83495;SDS011;73431;40.794;43.836;2023-10-19T14:33:40;11.02;;;1.90;;
83495;SDS011;73431;40.794;43.836;2023-10-19T14:36:09;4.20;;;1.60;;
83495;SDS011;73431;40.794;43.836;2023-10-19T14:38:37;12.52;;;2.50;;
83495;SDS011;73431;40.794;43.836;2023-10-19T14:41:06;6.10;;;2.20;;
83495;SDS011;73431;40.794;43.836;2023-10-19T14:43:36;8.45;;;2.00;;
83495;SDS011;73431;40.794;43.836;2023-10-19T14:46:05;11.93;;;2.72;;
83495;SDS011;73431;40.794;43.836;2023-10-19T14:48:33;12.07;;;2.58;;
83495;SDS011;73431;40.794;43.836;2023-10-19T14:51:02;8.85;;;1.90;;
83495;SDS011;73431;40.794;43.836;2023-10-19T14:53:29;14.63;;;3.50;;
83495;SDS011;73431;40.794;43.836;2023-10-19T14:55:57;17.08;;;2.67;;
83495;SDS011;73431;40.794;43.836;2023-10-19T15:00:52;13.52;;;3.10;;
83495;SDS011;73431;40.794;43.836;2023-10-19T15:03:23;5.30;;;2.22;;
83495;SDS011;73431;40.794;43.836;2023-10-19T15:05:52;7.20;;;2.65;;
83495;SDS011;73431;40.794;43.836;2023-10-19T15:08:20;9.70;;;2.85;;
83495;SDS011;73431;40.794;43.836;2023-10-19T15:10:51;12.13;;;3.50;;
83495;SDS011;73431;40.794;43.836;2023-10-19T15:13:21;10.00;;;3.53;;
83495;SDS011;73431;40.794;43.836;2023-10-19T15:15:49;11.38;;;3.63;;
83495;SDS011;73431;40.794;43.836;2023-10-19T15:18:17;14.13;;;2.95;;
83495;SDS011;73431;40.794;43.836;2023-10-19T15:20:45;12.95;;;4.30;;
83495;SDS011;73431;40.794;43.836;2023-10-19T15:23:13;11.60;;;3.40;;
83495;SDS011;73431;40.794;43.836;2023-10-19T15:25:41;9.68;;;3.72;;
83495;SDS011;73431;40.794;43.836;2023-10-19T15:28:09;6.50;;;3.47;;
83495;SDS011;73431;40.794;43.836;2023-10-19T15:30:38;7.57;;;4.20;;
83495;SDS011;73431;40.794;43.836;2023-10-19T15:33:06;6.25;;;3.60;;
83495;SDS011;73431;40.794;43.836;2023-10-19T15:38:03;8.30;;;3.90;;
83495;SDS011;73431;40.794;43.836;2023-10-19T15:40:31;6.10;;;3.63;;
83495;SDS011;73431;40.794;43.836;2023-10-19T15:42:59;8.40;;;3.90;;
83495;SDS011;73431;40.794;43.836;2023-10-19T15:45:28;10.00;;;3.70;;
83495;SDS011;73431;40.794;43.836;2023-10-19T15:47:59;10.45;;;3.60;;